Lake Lure, North Carolina
Current Conditions -  °F | °C
As of 4:55 AM on Friday 19 Dec 2014 (Local Time) from KFQD Reporting Station
Clear Clear  
Wind Chill: 34°   Ceiling: Unl
Heat Index: 34°   Visibility: 10mi
Dew Point: 28°   Wind: 3mph
Humidity: 78%   Direction: 340°NNW
Pressure: 30.1"   Gusts: NA
Location:  35.43°N, 82.2°W
Report Text: KFQD 190955Z AUTO 34003KT 10SM CLR 01/M02 A3010 RMK AO2 T00131022
Loading
Personal Weather Stations






























Interactive Weather Map New forecast layout! Learn more

10-Day Weather Forecast

Advertisements
Track Severe Weather on mobile